Time;durP1;ratioP1;P1;durP2;ratioP2;P2;SDS_P1;SDS_P2;PMS_P1;PMS_P2;Temp;Humidity;BMP_temperature;BMP_pressure;BME280_temperature;BME280_humidity;BME280_pressure;Samples;Min_cycle;Max_cycle;Signal;HPM_P1;HPM_P2
2021/07/18 00:00:14;;;;;;;13.93;8.35;;;22.10;99.90;;;;;;4353556;32;20097;-70
2021/07/18 00:02:40;;;;;;;17.42;9.40;;;22.20;99.90;;;;;;4364698;32;20082;-72
2021/07/18 00:05:07;;;;;;;14.35;9.25;;;22.10;99.90;;;;;;4389752;32;20521;-72
2021/07/18 00:07:33;;;;;;;15.13;8.65;;;22.00;99.90;;;;;;4352694;32;20084;-71
2021/07/18 00:10:00;;;;;;;13.52;8.93;;;22.10;99.90;;;;;;4389755;32;20076;-70
2021/07/18 00:12:26;;;;;;;15.55;8.20;;;22.10;99.90;;;;;;4377320;32;20101;-71
2021/07/18 00:14:52;;;;;;;16.00;9.23;;;22.00;99.90;;;;;;4377226;32;20066;-71
2021/07/18 00:17:18;;;;;;;18.85;9.45;;;22.00;99.90;;;;;;4365180;32;20083;-71
2021/07/18 00:19:44;;;;;;;13.88;8.38;;;22.00;99.90;;;;;;4377264;32;20070;-71
2021/07/18 00:22:10;;;;;;;18.20;9.27;;;22.00;99.90;;;;;;4377049;32;20115;-71
2021/07/18 00:24:36;;;;;;;14.40;9.35;;;22.00;99.90;;;;;;4389727;32;20429;-71
2021/07/18 00:27:12;;;;;;;13.82;9.23;;;22.00;99.90;;;;;;3834037;37;20070;-71
2021/07/18 00:29:40;;;;;;;19.90;9.63;;;21.90;99.90;;;;;;4366032;32;20533;-71
2021/07/18 00:32:07;;;;;;;26.58;10.68;;;22.00;99.90;;;;;;4354116;32;20069;-70
2021/07/18 00:34:33;;;;;;;16.20;9.65;;;22.00;99.90;;;;;;4378235;32;20153;-71
2021/07/18 00:37:00;;;;;;;16.25;9.63;;;21.90;99.90;;;;;;4365071;32;20093;-72
2021/07/18 00:39:26;;;;;;;17.42;9.07;;;21.90;99.90;;;;;;4375522;32;20585;-71
2021/07/18 00:41:52;;;;;;;12.13;8.85;;;21.90;99.90;;;;;;4350494;32;20511;-71
2021/07/18 00:44:18;;;;;;;15.00;8.73;;;21.90;99.90;;;;;;4375264;32;20076;-72
2021/07/18 00:46:44;;;;;;;16.60;9.43;;;21.80;99.90;;;;;;4362673;32;20527;-72
2021/07/18 00:49:10;;;;;;;14.93;9.88;;;21.70;99.90;;;;;;4350665;32;20101;-72
2021/07/18 00:51:36;;;;;;;16.05;9.73;;;21.60;99.90;;;;;;4350789;32;20143;-72
2021/07/18 00:54:03;;;;;;;14.35;9.23;;;21.60;99.90;;;;;;4363086;32;20159;-70
2021/07/18 00:56:29;;;;;;;16.45;8.48;;;21.70;99.90;;;;;;4338249;32;20094;-71
2021/07/18 00:58:57;;;;;;;14.90;9.00;;;21.70;99.90;;;;;;4338512;32;20516;-70
2021/07/18 01:01:24;;;;;;;16.17;9.13;;;21.70;99.90;;;;;;4350569;32;20522;-71
2021/07/18 01:03:50;;;;;;;16.17;9.57;;;21.70;99.90;;;;;;4350628;32;20070;-71
2021/07/18 01:06:16;;;;;;;19.92;10.30;;;21.70;99.90;;;;;;4350456;32;20443;-70
2021/07/18 01:08:43;;;;;;;14.38;8.88;;;21.80;99.90;;;;;;4374727;32;20071;-71
2021/07/18 01:11:10;;;;;;;15.95;9.18;;;21.80;99.90;;;;;;4338442;32;20074;-72
2021/07/18 01:13:36;;;;;;;16.83;9.40;;;21.90;99.90;;;;;;4362914;32;20141;-71
2021/07/18 01:16:02;;;;;;;15.57;9.10;;;21.90;99.90;;;;;;4375173;32;20078;-71
2021/07/18 01:18:29;;;;;;;14.57;8.82;;;21.70;99.90;;;;;;4338088;32;20144;-70
2021/07/18 01:20:55;;;;;;;14.38;9.05;;;21.70;99.90;;;;;;4338228;32;20070;-71
2021/07/18 01:23:21;;;;;;;15.00;8.50;;;21.60;99.90;;;;;;4350528;32;20088;-71
2021/07/18 01:25:52;;;;;;;15.23;8.70;;;21.60;99.90;;;;;;4361857;32;20094;-71
2021/07/18 01:28:20;;;;;;;14.48;9.20;;;21.80;99.90;;;;;;4339087;32;20173;-71
2021/07/18 01:30:46;;;;;;;15.70;9.13;;;21.90;99.90;;;;;;4349894;32;20077;-70
2021/07/18 01:33:13;;;;;;;14.20;8.90;;;21.90;99.90;;;;;;4350214;32;20095;-71
2021/07/18 01:35:39;;;;;;;16.77;8.90;;;21.90;99.90;;;;;;4337773;32;20093;-71
2021/07/18 01:38:11;;;;;;;14.25;9.35;;;22.00;99.90;;;;;;4342381;32;20153;-71
2021/07/18 01:40:37;;;;;;;21.80;9.60;;;22.00;99.90;;;;;;4353496;32;20140;-70
2021/07/18 01:43:04;;;;;;;16.23;9.13;;;21.90;99.90;;;;;;4365246;32;20538;-71
2021/07/18 01:45:31;;;;;;;14.27;8.77;;;21.90;99.90;;;;;;4340112;32;20081;-71
2021/07/18 01:47:57;;;;;;;11.70;8.60;;;21.90;99.90;;;;;;4352213;32;20157;-70
2021/07/18 01:50:23;;;;;;;12.95;8.68;;;21.90;99.90;;;;;;4339721;32;20105;-71
2021/07/18 01:52:50;;;;;;;20.77;9.68;;;21.80;99.90;;;;;;4352489;32;20159;-70
2021/07/18 01:55:20;;;;;;;12.50;8.63;;;21.90;99.90;;;;;;4351833;32;20120;-71
2021/07/18 01:57:47;;;;;;;16.02;8.98;;;22.10;99.90;;;;;;4352996;32;20156;-71
2021/07/18 02:00:14;;;;;;;14.82;9.25;;;22.20;99.90;;;;;;4352497;32;20081;-71
2021/07/18 02:02:45;;;;;;;13.88;9.30;;;22.30;99.90;;;;;;4327795;32;20089;-71
2021/07/18 02:05:13;;;;;;;14.02;9.13;;;22.50;99.90;;;;;;4328066;32;20067;-71
2021/07/18 02:07:39;;;;;;;20.52;9.55;;;22.50;99.90;;;;;;4352603;32;20070;-71
2021/07/18 02:10:07;;;;;;;20.83;9.35;;;22.60;99.90;;;;;;4327128;32;20094;-71
2021/07/18 02:12:33;;;;;;;18.33;9.55;;;22.80;99.90;;;;;;4364515;32;20531;-71
2021/07/18 02:14:59;;;;;;;21.17;10.20;;;22.60;99.90;;;;;;4340738;32;20481;-71
2021/07/18 02:17:26;;;;;;;28.12;10.85;;;22.60;99.90;;;;;;4365268;32;20084;-70
2021/07/18 02:19:52;;;;;;;21.37;10.82;;;22.60;99.90;;;;;;4352029;32;20526;-71
2021/07/18 02:22:42;;;;;;;21.62;10.20;;;22.70;99.90;;;;;;4327257;32;20077;-71
2021/07/18 02:25:09;;;;;;;18.60;9.65;;;22.70;99.90;;;;;;4342765;32;20089;-71
2021/07/18 02:27:36;;;;;;;19.15;10.15;;;22.90;99.90;;;;;;4351580;32;20096;-71
2021/07/18 02:30:09;;;;;;;17.35;9.45;;;22.90;99.90;;;;;;4339376;32;20545;-71
2021/07/18 02:32:36;;;;;;;13.40;9.43;;;23.00;99.90;;;;;;4351436;32;20161;-70
2021/07/18 02:35:04;;;;;;;15.25;8.65;;;23.10;99.90;;;;;;4364118;32;20097;-72
2021/07/18 02:37:30;;;;;;;18.02;9.30;;;23.20;99.10;;;;;;4351337;32;20150;-71
2021/07/18 02:39:56;;;;;;;11.90;8.18;;;23.30;97.70;;;;;;4326913;32;20093;-71
2021/07/18 02:42:22;;;;;;;13.68;9.13;;;23.40;96.50;;;;;;4351365;32;20170;-71
2021/07/18 02:44:49;;;;;;;15.40;8.07;;;23.50;95.50;;;;;;4377541;32;20066;-71
2021/07/18 02:47:15;;;;;;;21.10;9.20;;;23.60;95.40;;;;;;4339065;32;20252;-71
2021/07/18 02:49:41;;;;;;;16.30;8.80;;;23.70;94.70;;;;;;4350715;32;20177;-71
2021/07/18 02:52:09;;;;;;;11.43;7.95;;;23.70;94.50;;;;;;4351336;32;20072;-70
2021/07/18 02:54:35;;;;;;;15.88;9.00;;;23.80;94.30;;;;;;4351574;32;20441;-70
2021/07/18 02:57:02;;;;;;;13.25;8.80;;;23.90;95.60;;;;;;4339502;32;20440;-71
2021/07/18 02:59:28;;;;;;;12.37;8.57;;;23.90;94.30;;;;;;4326632;32;20471;-70
2021/07/18 03:01:59;;;;;;;12.63;9.15;;;24.00;94.10;;;;;;4339225;32;20159;-71
2021/07/18 03:04:29;;;;;;;12.43;9.00;;;24.00;93.60;;;;;;4328292;32;20082;-71
2021/07/18 03:06:56;;;;;;;13.32;9.10;;;24.10;95.30;;;;;;4350833;32;20129;-69
2021/07/18 03:09:23;;;;;;;12.75;10.13;;;24.00;96.30;;;;;;4363300;32;20121;-70
2021/07/18 03:11:53;;;;;;;15.52;11.05;;;24.00;92.80;;;;;;4350967;32;20558;-71
2021/07/18 03:14:20;;;;;;;15.38;10.70;;;23.90;93.20;;;;;;4338716;32;20153;-70
2021/07/18 03:16:49;;;;;;;16.60;10.63;;;23.90;93.40;;;;;;4351148;32;20084;-71
2021/07/18 03:19:16;;;;;;;17.30;10.23;;;24.00;93.50;;;;;;4327020;32;20078;-70
2021/07/18 03:21:42;;;;;;;14.45;10.25;;;24.00;93.20;;;;;;4338976;32;20181;-70
2021/07/18 03:24:09;;;;;;;19.73;10.60;;;24.10;94.20;;;;;;4326394;32;20176;-71
2021/07/18 03:26:35;;;;;;;14.77;9.57;;;24.20;93.70;;;;;;4345525;32;20199;-71
2021/07/18 03:29:01;;;;;;;14.45;10.15;;;24.30;93.40;;;;;;4345585;33;20066;-71
2021/07/18 03:31:27;;;;;;;12.25;9.05;;;24.30;93.50;;;;;;4358205;32;20086;-71
2021/07/18 03:33:54;;;;;;;16.62;11.02;;;24.40;93.10;;;;;;4358211;32;20148;-70
2021/07/18 03:36:20;;;;;;;15.70;10.23;;;24.50;92.80;;;;;;4333242;33;20087;-72
2021/07/18 03:38:46;;;;;;;14.80;10.13;;;24.60;93.60;;;;;;4357911;32;20067;-71
2021/07/18 03:41:13;;;;;;;15.98;10.07;;;24.60;92.00;;;;;;4345630;33;20082;-71
2021/07/18 03:43:39;;;;;;;14.32;9.80;;;24.60;91.80;;;;;;4358102;32;20102;-70
2021/07/18 03:46:05;;;;;;;16.37;10.23;;;24.70;91.50;;;;;;4357860;32;20082;-71
2021/07/18 03:48:32;;;;;;;13.85;9.50;;;24.70;91.10;;;;;;4357653;32;20101;-69
2021/07/18 03:50:59;;;;;;;13.95;9.85;;;24.80;90.90;;;;;;4358626;32;20119;-71
2021/07/18 03:53:25;;;;;;;15.82;10.23;;;24.90;90.10;;;;;;4346256;33;20097;-70
2021/07/18 03:55:51;;;;;;;15.35;9.30;;;25.10;86.70;;;;;;4333029;33;20087;-71
2021/07/18 03:58:17;;;;;;;16.35;10.07;;;25.10;84.70;;;;;;4357688;32;20140;-70
2021/07/18 04:00:44;;;;;;;14.05;10.20;;;25.20;82.80;;;;;;4357724;32;20074;-71
2021/07/18 04:03:10;;;;;;;16.02;9.85;;;25.40;80.80;;;;;;4345288;33;20126;-71
2021/07/18 04:05:36;;;;;;;14.02;10.73;;;25.40;79.00;;;;;;4357284;32;20154;-71
2021/07/18 04:08:02;;;;;;;13.43;8.85;;;25.40;77.50;;;;;;4345007;33;20173;-71
2021/07/18 04:10:28;;;;;;;15.18;8.55;;;25.50;76.00;;;;;;4345126;33;20233;-71
2021/07/18 04:12:56;;;;;;;14.45;9.20;;;25.60;74.20;;;;;;4344991;33;20667;-71
2021/07/18 04:15:22;;;;;;;12.20;8.27;;;25.70;71.50;;;;;;4344970;33;20102;-70
2021/07/18 04:17:48;;;;;;;15.50;8.52;;;25.80;67.70;;;;;;4357305;32;20608;-71
2021/07/18 04:20:15;;;;;;;11.85;7.55;;;25.90;66.20;;;;;;4344766;33;20434;-70
2021/07/18 04:22:41;;;;;;;12.15;8.02;;;26.10;63.70;;;;;;4320969;33;20087;-71
2021/07/18 04:25:09;;;;;;;12.00;8.07;;;26.20;62.50;;;;;;4362220;32;20078;-70
2021/07/18 04:27:35;;;;;;;11.23;7.32;;;26.20;62.40;;;;;;4338573;32;20135;-70
2021/07/18 04:30:03;;;;;;;10.80;8.10;;;26.30;62.00;;;;;;4362914;32;20468;-70
2021/07/18 04:32:29;;;;;;;13.25;6.40;;;26.40;61.70;;;;;;4350819;32;20083;-71
2021/07/18 04:34:55;;;;;;;10.77;6.82;;;26.50;62.50;;;;;;4362207;32;20676;-70
2021/07/18 04:37:21;;;;;;;9.10;7.30;;;26.60;60.00;;;;;;4337706;32;20070;-71
2021/07/18 04:39:47;;;;;;;8.93;6.40;;;28.20;53.50;;;;;;4362211;32;20523;-71
2021/07/18 04:42:13;;;;;;;10.57;7.72;;;30.20;43.80;;;;;;4349872;32;20574;-72
2021/07/18 04:44:40;;;;;;;9.65;6.57;;;30.60;40.80;;;;;;4325304;32;20082;-72
2021/07/18 04:47:06;;;;;;;10.40;7.68;;;31.30;37.70;;;;;;4337535;32;20089;-71
2021/07/18 04:49:32;;;;;;;13.62;7.53;;;32.00;36.50;;;;;;4362054;32;20557;-71
2021/07/18 04:51:59;;;;;;;11.07;7.12;;;32.20;35.10;;;;;;4350278;32;20456;-71
2021/07/18 04:54:25;;;;;;;7.85;5.57;;;32.40;33.60;;;;;;4350445;32;20112;-71
2021/07/18 04:56:51;;;;;;;8.98;6.55;;;32.20;34.80;;;;;;4325550;32;20186;-71
2021/07/18 04:59:20;;;;;;;8.52;5.60;;;32.70;33.00;;;;;;4338000;32;20077;-71
2021/07/18 05:01:47;;;;;;;11.55;6.20;;;33.00;31.20;;;;;;4350141;32;20078;-71
2021/07/18 05:04:13;;;;;;;6.85;5.75;;;32.70;32.10;;;;;;4362769;32;20069;-71
2021/07/18 05:06:39;;;;;;;7.95;5.90;;;33.20;32.10;;;;;;4325848;32;20078;-70
2021/07/18 05:09:05;;;;;;;8.23;6.15;;;32.50;32.80;;;;;;4362341;32;20154;-71
2021/07/18 05:11:31;;;;;;;8.82;5.62;;;32.80;32.00;;;;;;4362169;32;20101;-70
2021/07/18 05:13:57;;;;;;;9.65;5.22;;;32.80;30.90;;;;;;4328015;32;20097;-72
2021/07/18 05:16:25;;;;;;;8.10;5.47;;;32.40;31.70;;;;;;4364922;32;20065;-71
2021/07/18 05:18:51;;;;;;;8.20;5.43;;;32.20;33.00;;;;;;4364939;32;20123;-71
2021/07/18 05:21:17;;;;;;;8.15;4.80;;;32.00;32.20;;;;;;4353029;32;20084;-72
2021/07/18 05:23:43;;;;;;;10.23;5.47;;;32.30;30.50;;;;;;4365045;32;20093;-71
2021/07/18 05:26:10;;;;;;;9.85;6.37;;;32.30;29.60;;;;;;4327987;32;20069;-71
2021/07/18 05:28:36;;;;;;;8.43;5.32;;;31.40;31.40;;;;;;4340579;32;20097;-71
2021/07/18 05:31:02;;;;;;;10.73;5.47;;;32.50;30.30;;;;;;4367533;32;20525;-71
2021/07/18 05:33:28;;;;;;;8.32;5.50;;;33.10;29.80;;;;;;4360677;32;20097;-72
2021/07/18 05:35:55;;;;;;;9.00;4.75;;;33.60;29.00;;;;;;4339391;32;20074;-71
2021/07/18 05:38:21;;;;;;;8.50;5.00;;;32.60;30.00;;;;;;4370204;32;20070;-71
2021/07/18 05:40:47;;;;;;;7.45;5.00;;;32.70;29.10;;;;;;4371980;32;20050;-72
2021/07/18 05:43:13;;;;;;;7.97;5.10;;;32.80;28.40;;;;;;4372560;32;20126;-75
2021/07/18 05:45:40;;;;;;;7.15;4.70;;;33.10;28.10;;;;;;4357593;32;20081;-72
2021/07/18 05:48:06;;;;;;;7.57;3.87;;;33.20;28.50;;;;;;4346464;32;20042;-71
2021/07/18 05:50:33;;;;;;;8.15;4.78;;;32.90;28.10;;;;;;4344523;32;20109;-72
2021/07/18 05:52:59;;;;;;;10.43;4.78;;;33.60;27.70;;;;;;4341167;32;20085;-72
2021/07/18 05:55:25;;;;;;;7.37;4.40;;;33.80;26.80;;;;;;4364715;32;20153;-70
2021/07/18 05:57:54;;;;;;;6.62;4.07;;;32.90;27.40;;;;;;4327840;32;20519;-72
2021/07/18 06:00:20;;;;;;;4.65;3.55;;;33.50;27.40;;;;;;4353326;32;20078;-71
2021/07/18 06:02:46;;;;;;;6.18;4.00;;;32.70;28.50;;;;;;4365807;32;20171;-71
2021/07/18 06:05:13;;;;;;;5.57;3.40;;;33.50;28.00;;;;;;4352367;32;20187;-71
2021/07/18 06:07:39;;;;;;;5.60;3.90;;;32.60;27.80;;;;;;4352731;32;20064;-72
2021/07/18 06:10:07;;;;;;;5.50;3.85;;;32.20;28.10;;;;;;4339939;32;20177;-71
2021/07/18 06:12:33;;;;;;;5.37;3.67;;;31.50;28.70;;;;;;4327997;32;20101;-71
2021/07/18 06:15:00;;;;;;;4.60;3.12;;;32.30;28.80;;;;;;4339422;32;20113;-72
2021/07/18 06:17:27;;;;;;;4.07;3.20;;;31.80;28.80;;;;;;4352284;32;20086;-71
2021/07/18 06:19:53;;;;;;;4.85;3.70;;;31.90;29.30;;;;;;4364300;32;20543;-71
2021/07/18 06:22:19;;;;;;;4.53;3.70;;;32.30;28.60;;;;;;4351859;32;20436;-70
2021/07/18 06:24:45;;;;;;;5.30;3.85;;;32.50;28.00;;;;;;4327155;32;20106;-70
2021/07/18 06:27:12;;;;;;;4.55;3.30;;;32.20;27.10;;;;;;4351587;32;20078;-70
2021/07/18 06:29:38;;;;;;;4.62;3.62;;;31.70;28.30;;;;;;4327221;32;20196;-71
2021/07/18 06:32:06;;;;;;;4.85;3.80;;;31.70;27.50;;;;;;4339780;32;20079;-69
2021/07/18 06:34:32;;;;;;;5.18;3.47;;;31.00;29.60;;;;;;4352146;32;20161;-70
2021/07/18 06:36:58;;;;;;;4.45;3.10;;;30.70;30.70;;;;;;4377922;32;20086;-70
2021/07/18 06:39:25;;;;;;;4.75;3.30;;;30.70;31.20;;;;;;4351707;32;20166;-70
2021/07/18 06:41:51;;;;;;;4.22;3.35;;;30.80;30.70;;;;;;4363961;32;20163;-70
2021/07/18 06:44:18;;;;;;;4.60;3.20;;;31.00;30.20;;;;;;4363975;32;20125;-69
2021/07/18 06:46:44;;;;;;;5.25;3.40;;;31.30;29.50;;;;;;4339347;32;20501;-68
2021/07/18 06:49:10;;;;;;;4.70;3.40;;;30.90;30.00;;;;;;4351380;32;20078;-69
2021/07/18 06:51:36;;;;;;;3.15;2.80;;;30.60;30.50;;;;;;4351441;32;20165;-69
2021/07/18 06:54:03;;;;;;;3.58;3.15;;;30.60;29.70;;;;;;4351367;32;20508;-67
2021/07/18 06:56:30;;;;;;;3.95;2.95;;;30.10;29.90;;;;;;4326449;32;20078;-70
2021/07/18 06:58:57;;;;;;;4.05;3.00;;;30.10;31.00;;;;;;4338746;32;20090;-68
2021/07/18 07:01:23;;;;;;;6.10;2.97;;;30.20;30.40;;;;;;4351475;32;20082;-69
2021/07/18 07:03:49;;;;;;;4.57;3.22;;;30.30;30.00;;;;;;4377615;32;20255;-70
2021/07/18 07:06:16;;;;;;;4.87;3.40;;;30.80;30.70;;;;;;4363492;32;20432;-69
2021/07/18 07:08:42;;;;;;;4.45;3.03;;;31.00;30.70;;;;;;4326571;32;20085;-69
2021/07/18 07:11:08;;;;;;;5.68;3.33;;;30.40;30.80;;;;;;4363525;32;20070;-69
2021/07/18 07:13:34;;;;;;;4.18;3.17;;;30.40;31.40;;;;;;4338623;32;20078;-69
2021/07/18 07:16:01;;;;;;;4.68;3.33;;;30.60;30.90;;;;;;4338947;32;20092;-69
2021/07/18 07:18:27;;;;;;;4.32;2.83;;;30.40;31.20;;;;;;4326763;32;20059;-69
2021/07/18 07:20:53;;;;;;;5.07;3.35;;;30.40;30.40;;;;;;4338736;32;20164;-69
2021/07/18 07:23:19;;;;;;;5.18;3.22;;;30.60;31.20;;;;;;4363033;32;20071;-69
2021/07/18 07:25:45;;;;;;;4.57;3.03;;;30.30;31.20;;;;;;4326235;32;20086;-68
2021/07/18 07:28:11;;;;;;;4.22;3.03;;;30.30;31.00;;;;;;4338832;32;20082;-69
2021/07/18 07:30:38;;;;;;;4.93;2.83;;;31.40;29.60;;;;;;4350755;32;20070;-69
2021/07/18 07:33:04;;;;;;;5.12;3.40;;;31.30;29.50;;;;;;4350803;32;20146;-69
2021/07/18 07:35:30;;;;;;;10.63;3.25;;;30.70;29.50;;;;;;4350396;32;20150;-69
2021/07/18 07:37:56;;;;;;;3.25;2.85;;;30.50;30.60;;;;;;4363324;32;20085;-70
2021/07/18 07:40:24;;;;;;;4.87;2.85;;;31.30;31.70;;;;;;4350725;32;20070;-69
2021/07/18 07:42:50;;;;;;;6.53;2.80;;;31.90;28.90;;;;;;4351210;32;20066;-69
2021/07/18 07:45:17;;;;;;;5.90;3.45;;;31.40;29.60;;;;;;4338196;32;20090;-68
2021/07/18 07:47:43;;;;;;;6.72;3.03;;;31.60;29.00;;;;;;4338356;32;20071;-69
2021/07/18 07:50:11;;;;;;;3.70;2.87;;;31.50;28.80;;;;;;4338142;32;20497;-69
2021/07/18 07:52:37;;;;;;;5.37;3.70;;;31.50;28.50;;;;;;4338857;32;20077;-68
2021/07/18 07:55:05;;;;;;;5.53;3.45;;;31.60;28.00;;;;;;4337905;32;20082;-69
2021/07/18 07:57:34;;;;;;;5.75;3.35;;;30.90;29.70;;;;;;4350573;32;20100;-70
2021/07/18 08:00:06;;;;;;;5.18;3.60;;;31.00;30.30;;;;;;4326317;32;20077;-69
2021/07/18 08:02:33;;;;;;;3.95;3.03;;;31.00;29.70;;;;;;4327270;32;20074;-69
2021/07/18 08:04:59;;;;;;;8.00;3.47;;;30.60;30.30;;;;;;4350285;32;20082;-69
2021/07/18 08:07:25;;;;;;;5.72;3.65;;;31.40;30.00;;;;;;4350066;32;20121;-69
2021/07/18 08:09:51;;;;;;;5.53;3.20;;;31.40;29.80;;;;;;4325429;32;20517;-69
2021/07/18 08:12:18;;;;;;;5.80;3.42;;;31.10;30.00;;;;;;4338265;32;20082;-69
2021/07/18 08:14:44;;;;;;;4.75;3.50;;;31.20;29.40;;;;;;4338054;32;20082;-69
2021/07/18 08:17:13;;;;;;;5.20;3.30;;;31.20;30.10;;;;;;4350202;32;20225;-69
2021/07/18 08:19:41;;;;;;;4.55;3.25;;;31.60;29.70;;;;;;4349707;32;20074;-69
2021/07/18 08:22:08;;;;;;;4.47;3.05;;;30.80;30.70;;;;;;4350368;32;20534;-70
2021/07/18 08:24:35;;;;;;;7.72;3.40;;;30.90;30.10;;;;;;4350788;32;20100;-69
2021/07/18 08:27:02;;;;;;;8.30;3.33;;;31.00;29.90;;;;;;4338115;32;20086;-69
2021/07/18 08:29:29;;;;;;;5.85;3.50;;;31.10;30.30;;;;;;4338236;32;20090;-68
2021/07/18 08:31:58;;;;;;;4.60;3.10;;;31.40;30.00;;;;;;4362627;32;20098;-69
2021/07/18 08:34:27;;;;;;;6.05;2.92;;;31.60;30.90;;;;;;4326463;32;20441;-70
2021/07/18 08:36:54;;;;;;;4.20;3.20;;;32.20;29.30;;;;;;4350046;32;20078;-69
2021/07/18 08:39:20;;;;;;;3.83;3.10;;;31.10;30.00;;;;;;4338356;32;20074;-68
2021/07/18 08:41:46;;;;;;;3.83;3.00;;;31.70;29.60;;;;;;4349917;32;20545;-69
2021/07/18 08:44:13;;;;;;;5.20;3.20;;;31.70;29.60;;;;;;4362431;32;20505;-68
2021/07/18 08:46:40;;;;;;;4.82;3.00;;;31.40;29.90;;;;;;4349902;32;20093;-70
2021/07/18 08:49:08;;;;;;;6.35;3.37;;;31.70;29.70;;;;;;4328549;32;20097;-69
2021/07/18 08:51:35;;;;;;;4.85;3.22;;;31.30;29.80;;;;;;4352980;32;20074;-69
2021/07/18 08:54:01;;;;;;;5.10;3.20;;;30.90;30.50;;;;;;4340718;32;20079;-70
2021/07/18 08:56:32;;;;;;;3.70;3.00;;;31.10;30.40;;;;;;4353082;32;20085;-70
2021/07/18 08:59:09;;;;;;;5.35;3.47;;;31.60;29.90;;;;;;4365852;32;20164;-69
2021/07/18 09:01:40;;;;;;;5.57;3.28;;;31.20;29.70;;;;;;4340681;32;20089;-69
2021/07/18 09:04:06;;;;;;;5.40;3.30;;;31.40;30.50;;;;;;4341809;32;20174;-69
2021/07/18 09:06:50;;;;;;;4.53;3.08;;;31.60;29.60;;;;;;4378784;32;20062;-69
2021/07/18 09:09:19;;;;;;;3.75;3.15;;;32.10;29.20;;;;;;4342229;32;20157;-69
2021/07/18 09:11:58;;;;;;;4.32;2.90;;;31.40;29.50;;;;;;4354180;32;20227;-69
2021/07/18 09:14:32;;;;;;;4.72;3.47;;;31.90;29.40;;;;;;4334932;32;20113;-70
2021/07/18 09:16:59;;;;;;;9.20;3.28;;;31.70;29.10;;;;;;4350526;32;20143;-68
2021/07/18 09:19:29;;;;;;;4.18;3.00;;;32.00;29.10;;;;;;4353418;32;20137;-70
2021/07/18 09:22:06;;;;;;;4.22;2.85;;;32.10;28.90;;;;;;4372021;32;20077;-70
2021/07/18 09:24:38;;;;;;;4.20;2.70;;;31.60;29.30;;;;;;4340619;32;20154;-69
2021/07/18 09:27:17;;;;;;;5.12;2.95;;;31.30;29.20;;;;;;4353391;32;20080;-70
2021/07/18 09:29:51;;;;;;;5.03;3.20;;;31.60;29.40;;;;;;4353188;32;20090;-69
2021/07/18 09:32:28;;;;;;;4.43;3.30;;;31.60;29.40;;;;;;4353092;32;20500;-71
2021/07/18 09:34:57;;;;;;;4.47;3.00;;;31.70;28.80;;;;;;4352910;32;20163;-70
2021/07/18 09:37:32;;;;;;;3.10;2.70;;;32.40;28.90;;;;;;4327810;32;20531;-69
2021/07/18 09:40:00;;;;;;;3.62;3.00;;;32.30;27.70;;;;;;4328802;32;20074;-70
2021/07/18 09:42:38;;;;;;;3.20;2.90;;;33.00;27.80;;;;;;4365237;32;20085;-69
2021/07/18 09:45:08;;;;;;;5.75;3.10;;;32.60;27.90;;;;;;4352472;32;20527;-69
2021/07/18 09:47:38;;;;;;;4.87;3.10;;;32.20;28.10;;;;;;4327801;32;20150;-69
2021/07/18 09:50:16;;;;;;;5.37;3.45;;;32.60;28.00;;;;;;4328349;32;20112;-69
2021/07/18 09:52:48;;;;;;;3.60;3.00;;;32.50;27.80;;;;;;4340301;32;20151;-69
2021/07/18 09:55:23;;;;;;;7.28;3.20;;;32.40;27.50;;;;;;4353393;32;20093;-68
2021/07/18 09:57:53;;;;;;;4.07;2.95;;;32.70;27.70;;;;;;4339788;32;20097;-69
2021/07/18 10:00:22;;;;;;;4.65;3.22;;;33.50;26.50;;;;;;4351878;32;20165;-68
2021/07/18 10:02:51;;;;;;;3.97;3.22;;;32.60;27.10;;;;;;4352321;32;20161;-69
2021/07/18 10:05:27;;;;;;;4.87;2.90;;;32.90;27.20;;;;;;4328044;32;20244;-69
2021/07/18 10:08:13;;;;;;;4.00;3.12;;;32.30;27.40;;;;;;4328014;32;20074;-69
2021/07/18 10:10:40;;;;;;;4.10;3.28;;;32.20;27.90;;;;;;4352995;32;20082;-67
2021/07/18 10:13:07;;;;;;;4.53;3.22;;;32.40;27.80;;;;;;4351604;32;20468;-67
2021/07/18 10:15:33;;;;;;;4.50;3.20;;;32.10;27.50;;;;;;4339838;32;20094;-69
2021/07/18 10:18:00;;;;;;;5.35;3.10;;;32.70;27.60;;;;;;4339705;32;20078;-68
2021/07/18 10:20:26;;;;;;;4.47;3.40;;;32.40;27.40;;;;;;4339852;32;20138;-68
2021/07/18 10:22:56;;;;;;;5.32;3.40;;;32.70;27.20;;;;;;4339660;32;20492;-68
2021/07/18 10:25:24;;;;;;;6.30;3.72;;;32.80;26.60;;;;;;4347108;33;20087;-68
2021/07/18 10:27:51;;;;;;;4.00;3.15;;;32.80;26.40;;;;;;4346852;33;20078;-69
2021/07/18 10:30:22;;;;;;;5.65;3.35;;;33.40;26.70;;;;;;4359054;32;20069;-69
2021/07/18 10:32:50;;;;;;;4.03;3.35;;;33.30;25.80;;;;;;4334518;33;20513;-69
2021/07/18 10:35:16;;;;;;;4.30;3.17;;;33.70;25.90;;;;;;4346786;33;20090;-69
2021/07/18 10:37:43;;;;;;;5.20;3.65;;;33.80;25.30;;;;;;4346309;32;20627;-69
2021/07/18 10:40:20;;;;;;;6.82;3.30;;;33.60;25.90;;;;;;4334535;33;20207;-67
2021/07/18 10:42:47;;;;;;;3.55;2.90;;;33.10;26.10;;;;;;4334445;33;20068;-68
2021/07/18 10:45:21;;;;;;;5.45;3.05;;;33.70;25.80;;;;;;4346269;33;20090;-68
2021/07/18 10:47:58;;;;;;;5.27;2.90;;;33.50;25.10;;;;;;4358666;32;20078;-68
2021/07/18 10:50:50;;;;;;;4.55;3.55;;;32.90;26.10;;;;;;4358852;32;20070;-69
2021/07/18 10:53:25;;;;;;;4.70;3.35;;;32.60;25.70;;;;;;4322235;33;20088;-68
2021/07/18 10:55:54;;;;;;;4.00;3.10;;;32.90;25.70;;;;;;4333997;33;20156;-68
2021/07/18 10:58:51;;;;;;;6.62;3.80;;;33.50;26.20;;;;;;4333895;33;20118;-68
2021/07/18 11:01:23;;;;;;;5.68;3.80;;;32.80;25.30;;;;;;4343105;33;20113;-69
2021/07/18 11:03:49;;;;;;;4.65;3.22;;;33.30;25.60;;;;;;4333674;33;20157;-67
2021/07/18 11:06:30;;;;;;;8.07;3.30;;;32.80;25.50;;;;;;4358297;32;20161;-68
2021/07/18 11:09:14;;;;;;;4.12;3.25;;;32.80;25.50;;;;;;4346682;33;20074;-69
2021/07/18 11:11:44;;;;;;;5.18;3.53;;;32.90;25.80;;;;;;4333739;33;20089;-69
2021/07/18 11:14:35;;;;;;;5.53;3.30;;;33.10;25.90;;;;;;4346339;33;20075;-69
2021/07/18 11:17:07;;;;;;;4.00;3.37;;;33.00;26.20;;;;;;4358603;32;20610;-69
2021/07/18 11:19:39;;;;;;;5.72;3.65;;;32.90;25.60;;;;;;4346059;33;20082;-69
2021/07/18 11:22:10;;;;;;;6.72;3.55;;;33.30;25.20;;;;;;4334054;33;20421;-68
2021/07/18 11:24:53;;;;;;;6.50;3.67;;;33.90;25.20;;;;;;4358079;32;20074;-68
2021/07/18 11:27:45;;;;;;;7.60;3.58;;;34.40;24.00;;;;;;4346282;33;20089;-69
2021/07/18 11:30:38;;;;;;;5.12;3.35;;;34.00;24.10;;;;;;4334255;33;20528;-68
2021/07/18 11:33:27;;;;;;;6.82;4.03;;;33.70;24.90;;;;;;4335016;33;20074;-68
2021/07/18 11:35:55;;;;;;;6.70;4.10;;;33.80;23.80;;;;;;4346674;33;20079;-69
2021/07/18 11:38:21;;;;;;;4.65;3.50;;;33.80;24.20;;;;;;4333447;33;20082;-69
2021/07/18 11:40:48;;;;;;;5.60;3.80;;;33.80;24.30;;;;;;4345888;33;20161;-68
2021/07/18 11:43:14;;;;;;;5.28;3.58;;;33.70;24.40;;;;;;4345874;33;20074;-67
2021/07/18 11:45:40;;;;;;;6.03;4.05;;;34.00;24.80;;;;;;4320904;33;20180;-68
2021/07/18 11:48:07;;;;;;;5.50;4.03;;;33.70;24.60;;;;;;4345920;33;20079;-68
2021/07/18 11:50:33;;;;;;;7.15;3.95;;;33.90;24.20;;;;;;4346042;33;20082;-68
2021/07/18 11:52:59;;;;;;;8.35;4.07;;;34.20;24.20;;;;;;4333477;33;20220;-67
2021/07/18 11:55:26;;;;;;;6.45;3.80;;;34.00;24.20;;;;;;4357878;32;20083;-68
2021/07/18 11:57:53;;;;;;;6.05;3.92;;;34.50;23.70;;;;;;4333133;33;20094;-68
2021/07/18 12:00:19;;;;;;;4.65;3.50;;;34.60;23.30;;;;;;4333291;33;20109;-68
2021/07/18 12:02:46;;;;;;;5.85;4.35;;;34.50;24.00;;;;;;4345428;33;20591;-67
2021/07/18 12:05:13;;;;;;;6.03;4.03;;;34.00;23.20;;;;;;4357716;32;20069;-68
2021/07/18 12:07:39;;;;;;;6.25;4.00;;;34.30;23.70;;;;;;4346977;33;20094;-68
2021/07/18 12:10:20;;;;;;;5.30;4.22;;;34.80;23.30;;;;;;4355907;33;20174;-68
2021/07/18 12:12:49;;;;;;;7.72;4.22;;;34.20;23.30;;;;;;4337319;33;20109;-68
2021/07/18 12:15:16;;;;;;;5.82;3.97;;;34.20;24.90;;;;;;4333204;33;20088;-68
2021/07/18 12:17:42;;;;;;;5.85;4.28;;;34.10;23.70;;;;;;4357939;32;20066;-68
2021/07/18 12:20:09;;;;;;;6.40;4.10;;;34.00;24.50;;;;;;4357545;32;20090;-69
2021/07/18 12:22:35;;;;;;;7.07;3.97;;;33.80;25.10;;;;;;4321118;33;20185;-68
2021/07/18 12:25:01;;;;;;;5.20;4.10;;;34.30;24.10;;;;;;4348071;32;20140;-68
2021/07/18 12:27:28;;;;;;;6.15;4.25;;;33.80;23.80;;;;;;4362523;32;20173;-68
2021/07/18 12:30:00;;;;;;;8.38;4.40;;;33.80;23.90;;;;;;4338030;32;20074;-69
2021/07/18 12:32:31;;;;;;;5.03;2.92;;;33.60;24.00;;;;;;4338454;32;20095;-69
2021/07/18 12:34:58;;;;;;;5.93;4.00;;;33.60;25.20;;;;;;4326150;32;20089;-69
2021/07/18 12:37:32;;;;;;;6.22;3.97;;;34.00;25.30;;;;;;4325781;32;20149;-69
2021/07/18 12:40:04;;;;;;;6.22;4.43;;;34.20;24.40;;;;;;4350237;32;20086;-69
2021/07/18 12:42:43;;;;;;;5.47;4.10;;;34.60;23.70;;;;;;4350130;32;20113;-69
2021/07/18 12:45:11;;;;;;;5.53;3.37;;;34.40;23.70;;;;;;4339158;32;20509;-69
2021/07/18 12:47:41;;;;;;;6.60;3.67;;;34.20;24.50;;;;;;4338118;32;20542;-69